Time;durP1;ratioP1;P1;durP2;ratioP2;P2;SDS_P1;SDS_P2;PMS_P1;PMS_P2;Temp;Humidity;BMP_temperature;BMP_pressure;BME280_temperature;BME280_humidity;BME280_pressure;Samples;Min_cycle;Max_cycle;Signal;HPM_P1;HPM_P2
2023/06/24 00:01:13;;;;;;;3.83;2.25;;;;;;;18.50;60.32;99438.22;5105934;28;20044;-69
2023/06/24 00:03:39;;;;;;;3.13;1.85;;;;;;;17.79;59.60;99352.22;5107922;28;20035;-69
2023/06/24 00:06:06;;;;;;;2.88;1.95;;;;;;;18.43;60.53;99453.16;5091841;28;20050;-69
2023/06/24 00:08:34;;;;;;;3.10;1.90;;;;;;;18.38;60.26;99455.38;5110587;28;20044;-69
2023/06/24 00:11:01;;;;;;;4.93;1.92;;;;;;;18.30;60.00;99458.72;5109334;28;20342;-69
2023/06/24 00:13:28;;;;;;;4.00;2.10;;;;;;;18.37;61.08;99451.84;5109933;28;20044;-69
2023/06/24 00:15:55;;;;;;;3.38;2.03;;;;;;;18.32;60.44;99443.34;5109627;28;20067;-69
2023/06/24 00:18:24;;;;;;;3.22;2.00;;;;;;;18.27;60.47;99437.53;5109551;28;20238;-68
2023/06/24 00:20:51;;;;;;;3.75;2.00;;;;;;;17.85;60.57;99385.72;5109777;28;20056;-69
2023/06/24 00:23:24;;;;;;;4.28;1.90;;;;;;;17.46;61.10;99355.03;5091359;28;20035;-69
2023/06/24 00:25:51;;;;;;;3.45;1.83;;;;;;;18.08;60.89;99440.06;5110028;28;20176;-69
2023/06/24 00:28:17;;;;;;;3.75;1.77;;;;;;;18.13;61.60;99433.34;5109647;28;20044;-69
2023/06/24 00:30:44;;;;;;;4.75;2.40;;;;;;;18.14;61.03;99434.19;5109631;28;20089;-69
2023/06/24 00:33:13;;;;;;;3.10;2.00;;;;;;;18.15;61.31;99441.25;5109252;28;20062;-70
2023/06/24 00:35:41;;;;;;;4.00;1.92;;;;;;;18.12;61.46;99444.19;5109567;28;20120;-69
2023/06/24 00:38:08;;;;;;;4.22;2.00;;;;;;;18.19;61.15;99450.75;5109445;28;20036;-69
2023/06/24 00:40:35;;;;;;;3.10;1.83;;;;;;;18.11;61.32;99443.34;5109225;28;20043;-70
2023/06/24 00:43:02;;;;;;;3.00;1.80;;;;;;;18.15;61.10;99433.19;5109053;28;20300;-70
2023/06/24 00:45:30;;;;;;;3.00;2.20;;;;;;;18.13;61.64;99441.38;5109094;28;20039;-69
2023/06/24 00:47:58;;;;;;;2.85;1.90;;;;;;;18.16;61.52;99443.81;5109312;28;20047;-69
2023/06/24 00:50:25;;;;;;;3.67;2.40;;;;;;;18.19;61.27;99451.59;5108988;28;20075;-69
2023/06/24 00:52:54;;;;;;;3.28;2.03;;;;;;;18.11;61.29;99442.50;5109187;28;20042;-69
2023/06/24 00:55:21;;;;;;;3.28;2.03;;;;;;;18.12;61.89;99438.84;5108599;28;20040;-69
2023/06/24 00:57:50;;;;;;;3.42;2.15;;;;;;;18.03;61.55;99435.09;5109084;28;20052;-69
2023/06/24 01:00:19;;;;;;;4.60;2.45;;;;;;;18.00;61.84;99424.63;5109062;28;20047;-69
2023/06/24 01:02:48;;;;;;;3.30;2.30;;;;;;;18.06;61.47;99442.03;5108454;28;20044;-69
2023/06/24 01:05:15;;;;;;;3.75;2.08;;;;;;;17.92;62.29;99449.41;5108348;28;20040;-69
2023/06/24 01:07:43;;;;;;;3.42;1.83;;;;;;;17.82;62.66;99440.44;5108921;28;20085;-69
2023/06/24 01:10:12;;;;;;;4.35;2.22;;;;;;;17.80;62.44;99437.03;5108321;28;20043;-69
2023/06/24 01:12:41;;;;;;;4.47;2.38;;;;;;;17.75;62.77;99446.44;5108511;28;20123;-69
2023/06/24 01:15:09;;;;;;;3.10;2.28;;;;;;;17.67;63.23;99446.22;5108044;28;20059;-70
2023/06/24 01:17:43;;;;;;;3.58;2.20;;;;;;;17.74;63.41;99442.91;5108454;28;20046;-69
2023/06/24 01:20:19;;;;;;;2.90;1.97;;;;;;;17.82;62.92;99439.59;5108728;28;20048;-69
2023/06/24 01:23:40;;;;;;;3.55;2.17;;;;;;;17.92;62.82;99443.19;5108155;28;20040;-69
2023/06/24 01:26:21;;;;;;;3.13;2.25;;;;;;;17.87;62.76;99440.06;5108583;28;20311;-69
2023/06/24 01:29:22;;;;;;;3.00;2.20;;;;;;;17.88;62.78;99447.97;5108283;28;20078;-69
2023/06/24 01:31:53;;;;;;;5.28;2.05;;;;;;;17.89;63.21;99432.72;5108714;28;20043;-69
2023/06/24 01:34:28;;;;;;;3.40;2.20;;;;;;;17.90;63.05;99437.97;5108134;28;20043;-69
2023/06/24 01:37:06;;;;;;;5.88;2.00;;;;;;;17.97;62.91;99427.56;5108070;28;20181;-69
2023/06/24 01:39:38;;;;;;;3.25;2.03;;;;;;;17.86;63.02;99444.56;5108299;28;20044;-69
2023/06/24 01:42:10;;;;;;;3.70;2.40;;;;;;;17.84;63.45;99437.63;5107603;28;20345;-69
2023/06/24 01:44:41;;;;;;;3.47;2.28;;;;;;;17.88;63.75;99441.75;5107881;28;20048;-69
2023/06/24 01:47:12;;;;;;;3.33;2.17;;;;;;;17.91;63.28;99455.75;5107584;28;20044;-69
2023/06/24 01:49:42;;;;;;;5.38;2.70;;;;;;;17.81;63.53;99446.78;5108120;28;20101;-69
2023/06/24 01:52:10;;;;;;;3.67;2.58;;;;;;;17.91;63.52;99457.59;5107978;28;20040;-69
2023/06/24 01:54:39;;;;;;;3.30;2.40;;;;;;;17.91;63.26;99450.38;5108028;28;20032;-69
2023/06/24 01:57:09;;;;;;;4.45;2.63;;;;;;;17.91;63.83;99452.22;5107642;28;20200;-69
2023/06/24 01:59:41;;;;;;;3.47;2.65;;;;;;;17.92;63.98;99454.78;5107573;28;20292;-69
2023/06/24 02:02:09;;;;;;;2.85;2.00;;;;;;;17.98;64.22;99449.88;5107562;28;20323;-69
2023/06/24 02:04:37;;;;;;;2.92;2.05;;;;;;;17.99;63.90;99452.44;5107159;28;20047;-69
2023/06/24 02:07:05;;;;;;;4.90;2.78;;;;;;;18.11;63.61;99450.53;5107632;28;20140;-69
2023/06/24 02:09:34;;;;;;;4.82;2.40;;;;;;;17.78;63.78;99430.94;5107412;28;20358;-69
2023/06/24 02:12:03;;;;;;;4.32;2.45;;;;;;;17.91;64.31;99460.25;5107666;28;20346;-69
2023/06/24 02:14:31;;;;;;;3.28;2.15;;;;;;;17.77;64.64;99434.59;5107322;28;20318;-69
2023/06/24 02:17:00;;;;;;;3.50;2.42;;;;;;;17.84;64.20;99432.25;5106881;28;20054;-69
2023/06/24 02:19:31;;;;;;;3.45;2.30;;;;;;;17.97;64.63;99454.38;5107182;28;20326;-69
2023/06/24 02:21:59;;;;;;;4.97;2.50;;;;;;;17.99;63.84;99443.53;5107432;28;20058;-69
2023/06/24 02:24:27;;;;;;;3.50;2.45;;;;;;;18.04;64.25;99441.31;5107307;28;20043;-69
2023/06/24 02:26:54;;;;;;;4.38;2.13;;;;;;;18.02;64.44;99445.94;5106251;28;20204;-69
2023/06/24 02:29:23;;;;;;;3.58;2.00;;;;;;;18.09;64.06;99452.50;5107021;28;20048;-69
2023/06/24 02:31:49;;;;;;;2.75;1.90;;;;;;;18.04;63.57;99454.72;5106957;28;20318;-69
2023/06/24 02:34:16;;;;;;;4.05;1.98;;;;;;;17.88;64.60;99453.31;5106970;28;20040;-69
2023/06/24 02:36:44;;;;;;;4.50;2.20;;;;;;;17.76;65.04;99449.00;5106892;28;20299;-69
2023/06/24 02:39:11;;;;;;;2.97;1.90;;;;;;;17.82;65.01;99456.53;5106814;28;20051;-69
2023/06/24 02:41:38;;;;;;;3.45;2.35;;;;;;;17.65;65.17;99442.81;5106589;28;20056;-70
2023/06/24 02:44:05;;;;;;;3.00;2.40;;;;;;;17.65;65.78;99438.31;5107007;28;20089;-69
2023/06/24 02:46:34;;;;;;;4.25;2.70;;;;;;;17.62;65.64;99430.53;5106561;28;20322;-69
2023/06/24 02:49:02;;;;;;;4.28;2.33;;;;;;;17.61;65.91;99423.47;5106716;28;20288;-69
2023/06/24 02:51:29;;;;;;;3.30;2.30;;;;;;;17.62;66.46;99422.47;5106347;28;20051;-69
2023/06/24 02:53:59;;;;;;;3.78;2.47;;;;;;;17.70;65.90;99429.88;5106617;28;20296;-68
2023/06/24 02:56:27;;;;;;;2.80;2.05;;;;;;;17.65;66.07;99435.63;5106247;28;20050;-69
2023/06/24 02:58:55;;;;;;;4.63;2.42;;;;;;;17.62;66.12;99431.38;5106295;28;20086;-69
2023/06/24 03:01:24;;;;;;;9.95;6.78;;;;;;;17.63;66.82;99443.78;5106731;28;20047;-69
2023/06/24 03:03:54;;;;;;;16.95;13.25;;;;;;;17.66;67.40;99460.59;5106387;28;20040;-70
2023/06/24 03:06:22;;;;;;;9.52;6.45;;;;;;;17.66;67.59;99457.91;5106117;28;20051;-69
2023/06/24 03:08:49;;;;;;;7.10;4.80;;;;;;;17.64;67.32;99460.72;5106032;28;20093;-69
2023/06/24 03:11:17;;;;;;;4.15;3.03;;;;;;;17.69;67.29;99457.66;5106574;28;20044;-69
2023/06/24 03:13:45;;;;;;;3.30;2.20;;;;;;;17.42;67.21;99407.19;5106509;28;20064;-69
2023/06/24 03:16:12;;;;;;;3.70;2.28;;;;;;;17.69;67.15;99445.13;5088155;28;20028;-69
2023/06/24 03:18:41;;;;;;;3.65;1.83;;;;;;;17.66;67.17;99468.66;5106691;28;20220;-69
2023/06/24 03:21:08;;;;;;;2.92;2.20;;;;;;;17.67;67.74;99470.34;5106434;28;20050;-69
2023/06/24 03:23:35;;;;;;;2.95;1.90;;;;;;;17.56;67.81;99455.97;5106382;28;20054;-69
2023/06/24 03:26:02;;;;;;;3.60;2.53;;;;;;;17.49;68.30;99472.69;5106019;28;20308;-69
2023/06/24 03:28:31;;;;;;;3.75;2.20;;;;;;;17.53;68.59;99464.25;5106066;28;20259;-69
2023/06/24 03:30:58;;;;;;;2.78;2.00;;;;;;;17.52;68.76;99467.91;5106016;28;20040;-70
2023/06/24 03:33:26;;;;;;;3.08;2.10;;;;;;;17.58;68.80;99470.09;5105991;28;20051;-69
2023/06/24 03:35:53;;;;;;;4.15;2.42;;;;;;;17.49;68.71;99492.28;5105713;28;20111;-69
2023/06/24 03:38:20;;;;;;;2.67;2.08;;;;;;;17.58;68.08;99483.50;5087802;28;20165;-69
2023/06/24 03:40:47;;;;;;;3.30;2.22;;;;;;;17.55;68.31;99478.38;5105959;28;20086;-69
2023/06/24 03:43:14;;;;;;;2.63;1.80;;;;;;;17.55;68.91;99478.38;5087859;28;20048;-69
2023/06/24 03:45:42;;;;;;;2.97;1.92;;;;;;;17.54;68.83;99473.16;5105715;28;20051;-70
2023/06/24 03:48:09;;;;;;;2.80;1.80;;;;;;;17.56;68.91;99472.03;5106136;28;20163;-69
2023/06/24 03:50:35;;;;;;;2.42;1.70;;;;;;;17.48;68.85;99481.69;5105560;28;20067;-69
2023/06/24 03:53:03;;;;;;;2.88;1.90;;;;;;;17.42;69.52;99485.72;5105803;28;20089;-69
2023/06/24 03:55:29;;;;;;;3.95;1.80;;;;;;;17.32;68.99;99484.75;5106079;28;20036;-69
2023/06/24 03:57:56;;;;;;;2.63;1.52;;;;;;;17.25;70.92;99475.53;5106054;28;20097;-69
2023/06/24 04:00:23;;;;;;;1.98;1.38;;;;;;;17.26;70.77;99487.94;5105475;28;20044;-69
2023/06/24 04:02:52;;;;;;;1.98;1.40;;;;;;;17.21;72.38;99482.94;5105712;28;20048;-69
2023/06/24 04:05:18;;;;;;;2.92;1.92;;;;;;;17.25;71.57;99480.88;5105369;28;20054;-69
2023/06/24 04:07:46;;;;;;;2.90;1.50;;;;;;;17.25;71.71;99489.75;5105383;28;20044;-69
2023/06/24 04:10:13;;;;;;;2.88;1.60;;;;;;;17.26;71.76;99488.78;5105910;28;20044;-69
2023/06/24 04:12:40;;;;;;;3.58;1.83;;;;;;;17.29;72.10;99499.25;5105875;28;20093;-69
2023/06/24 04:15:08;;;;;;;3.47;1.60;;;;;;;17.20;71.96;99489.28;5105901;28;20042;-69
2023/06/24 04:17:35;;;;;;;2.45;1.52;;;;;;;17.12;71.73;99486.34;5105318;28;20036;-69
2023/06/24 04:20:06;;;;;;;2.55;1.83;;;;;;;17.28;71.79;99499.38;5105792;28;20123;-69
2023/06/24 04:22:33;;;;;;;2.72;1.40;;;;;;;17.21;72.09;99511.56;5105552;28;20089;-69
2023/06/24 04:25:00;;;;;;;2.17;1.52;;;;;;;17.23;72.42;99506.94;5105491;28;20169;-69
2023/06/24 04:27:27;;;;;;;1.80;1.25;;;;;;;17.19;71.89;99502.75;5105521;28;20066;-69
2023/06/24 04:29:53;;;;;;;2.70;1.58;;;;;;;17.18;72.03;99515.31;5105447;28;20044;-69
2023/06/24 04:32:20;;;;;;;2.17;1.50;;;;;;;17.09;72.24;99508.00;5105354;28;20299;-69
2023/06/24 04:34:47;;;;;;;1.92;1.20;;;;;;;17.02;72.88;99512.13;5087510;28;20118;-69
2023/06/24 04:37:15;;;;;;;1.83;1.30;;;;;;;16.99;72.89;99517.75;5105412;28;20044;-69
2023/06/24 04:39:41;;;;;;;2.00;1.58;;;;;;;17.08;72.35;99519.69;5105389;28;20106;-69
2023/06/24 04:42:08;;;;;;;1.90;1.30;;;;;;;16.93;73.36;99524.44;5104909;28;20328;-69
2023/06/24 04:44:34;;;;;;;3.53;1.45;;;;;;;16.75;73.33;99506.28;5105238;28;20097;-69
2023/06/24 04:47:01;;;;;;;2.53;1.40;;;;;;;16.98;73.21;99538.31;5105009;28;20101;-69
2023/06/24 04:49:28;;;;;;;2.08;1.50;;;;;;;16.83;73.46;99519.91;5107920;28;20209;-69
2023/06/24 04:51:55;;;;;;;2.15;1.40;;;;;;;16.94;73.45;99534.16;5108712;28;20054;-69
2023/06/24 04:54:23;;;;;;;2.25;1.55;;;;;;;17.01;73.35;99542.56;5108940;28;20177;-69
2023/06/24 04:56:51;;;;;;;2.10;1.40;;;;;;;17.06;72.42;99539.53;5108579;28;20051;-68
2023/06/24 04:59:18;;;;;;;1.80;1.27;;;;;;;16.99;72.52;99549.88;5109110;28;20051;-69
2023/06/24 05:01:45;;;;;;;2.42;1.58;;;;;;;17.06;72.34;99543.06;5108465;28;20051;-69
2023/06/24 05:04:11;;;;;;;1.98;1.27;;;;;;;17.06;71.89;99537.69;5108412;28;20044;-69
2023/06/24 05:06:38;;;;;;;2.33;1.45;;;;;;;17.15;71.49;99536.13;5108626;28;20330;-69
2023/06/24 05:09:05;;;;;;;1.83;1.30;;;;;;;17.09;71.89;99532.09;5108547;28;20297;-69
2023/06/24 05:11:33;;;;;;;2.15;1.42;;;;;;;17.20;71.58;99545.53;5108290;28;20081;-69
2023/06/24 05:14:01;;;;;;;1.88;1.40;;;;;;;17.12;71.35;99560.47;5108374;28;20059;-69
2023/06/24 05:16:27;;;;;;;1.92;1.30;;;;;;;17.07;70.79;99558.16;5108520;28;20085;-69
2023/06/24 05:18:54;;;;;;;1.73;1.30;;;;;;;16.99;71.75;99568.59;5108469;28;20302;-69
2023/06/24 05:21:20;;;;;;;1.90;1.27;;;;;;;16.91;71.51;99547.78;5108096;28;20048;-69
2023/06/24 05:23:47;;;;;;;1.67;1.15;;;;;;;17.03;71.22;99551.34;5108336;28;20354;-69
2023/06/24 05:26:14;;;;;;;1.65;1.20;;;;;;;17.12;71.34;99561.31;5108045;28;20070;-69
2023/06/24 05:28:42;;;;;;;3.10;1.33;;;;;;;17.09;71.49;99558.03;5107997;28;20047;-69
2023/06/24 05:31:09;;;;;;;2.13;1.33;;;;;;;17.10;71.70;99568.63;5108202;28;20040;-69
2023/06/24 05:33:35;;;;;;;2.22;1.40;;;;;;;16.96;72.20;99575.06;5108049;28;20036;-69
2023/06/24 05:36:02;;;;;;;2.00;1.40;;;;;;;17.05;72.22;99591.38;5107951;28;20327;-69
2023/06/24 05:38:29;;;;;;;2.13;1.30;;;;;;;17.09;71.60;99592.84;5107658;28;20062;-69
2023/06/24 05:40:55;;;;;;;2.08;1.50;;;;;;;17.07;72.19;99597.47;5107981;28;20062;-69
2023/06/24 05:43:22;;;;;;;2.25;1.50;;;;;;;17.12;72.74;99603.31;5107869;28;20048;-69
2023/06/24 05:45:50;;;;;;;1.75;1.20;;;;;;;16.91;73.37;99611.19;5107845;28;20110;-69
2023/06/24 05:48:17;;;;;;;1.80;1.30;;;;;;;16.91;73.76;99617.38;5107881;28;20047;-69
2023/06/24 05:50:44;;;;;;;2.08;1.30;;;;;;;16.89;73.88;99605.94;5107593;28;20094;-69
2023/06/24 05:53:10;;;;;;;2.17;1.42;;;;;;;17.00;73.20;99603.28;5108051;28;20051;-69
2023/06/24 05:55:37;;;;;;;3.10;1.48;;;;;;;16.88;73.52;99604.25;5107449;28;20036;-69
2023/06/24 05:58:04;;;;;;;2.05;1.40;;;;;;;16.96;73.83;99607.19;5107372;28;20051;-69
2023/06/24 06:00:30;;;;;;;1.38;1.10;;;;;;;16.91;73.69;99593.31;5107814;28;20284;-69
2023/06/24 06:02:58;;;;;;;1.52;1.20;;;;;;;17.04;73.79;99617.28;5107275;28;20044;-69
2023/06/24 06:05:25;;;;;;;1.90;1.40;;;;;;;17.10;73.98;99608.78;5107424;28;20314;-69
2023/06/24 06:07:53;;;;;;;1.80;1.30;;;;;;;17.22;73.74;99615.91;5107739;28;20066;-69
2023/06/24 06:10:21;;;;;;;1.73;1.20;;;;;;;17.24;73.39;99607.75;5107485;28;20040;-69
2023/06/24 06:12:47;;;;;;;1.77;1.30;;;;;;;17.20;74.15;99615.16;5107663;28;20048;-69
2023/06/24 06:15:14;;;;;;;1.60;1.27;;;;;;;17.23;73.94;99619.44;5107562;28;20043;-69
2023/06/24 06:17:41;;;;;;;1.30;1.10;;;;;;;17.26;73.03;99621.88;5106983;28;20335;-69
2023/06/24 06:20:10;;;;;;;1.70;1.20;;;;;;;17.25;73.91;99630.88;5107514;28;20048;-69
2023/06/24 06:22:38;;;;;;;2.22;1.42;;;;;;;17.24;73.15;99637.19;5106928;28;20054;-69
2023/06/24 06:25:06;;;;;;;2.10;1.30;;;;;;;17.24;72.46;99647.91;5106960;28;20040;-69
2023/06/24 06:27:33;;;;;;;2.10;1.35;;;;;;;17.20;73.07;99652.66;5107110;28;20292;-69
2023/06/24 06:30:00;;;;;;;1.83;1.27;;;;;;;17.25;73.57;99655.81;5106694;28;20050;-69
2023/06/24 06:32:26;;;;;;;1.77;1.20;;;;;;;17.25;73.06;99645.13;5089302;28;20071;-69
2023/06/24 06:34:53;;;;;;;2.03;1.30;;;;;;;17.23;73.65;99657.78;5106681;28;20050;-69
2023/06/24 06:37:21;;;;;;;2.63;1.60;;;;;;;17.22;73.61;99658.75;5107090;28;20055;-69
2023/06/24 06:39:48;;;;;;;2.00;1.40;;;;;;;17.21;73.58;99661.53;5106759;28;20066;-69
2023/06/24 06:42:15;;;;;;;1.73;1.23;;;;;;;17.30;73.99;99650.13;5106579;28;20121;-69
2023/06/24 06:44:42;;;;;;;2.15;1.35;;;;;;;17.25;74.21;99657.66;5106737;28;20036;-69
2023/06/24 06:47:09;;;;;;;1.42;1.10;;;;;;;17.28;73.98;99662.78;5106677;28;20032;-69
2023/06/24 06:49:35;;;;;;;2.55;1.50;;;;;;;17.28;73.42;99662.78;5088672;28;20048;-68
2023/06/24 06:52:02;;;;;;;2.17;1.42;;;;;;;17.28;74.28;99662.78;5088865;28;20093;-69
2023/06/24 06:54:30;;;;;;;2.20;1.40;;;;;;;17.34;73.69;99654.25;5106490;28;20276;-69
2023/06/24 06:57:01;;;;;;;1.80;1.27;;;;;;;17.33;73.32;99657.91;5106700;28;20289;-69
2023/06/24 06:59:28;;;;;;;2.20;1.50;;;;;;;16.85;73.03;99574.19;5106432;28;20300;-69
2023/06/24 07:01:54;;;;;;;2.25;1.73;;;;;;;17.33;72.21;99647.19;5106782;28;20036;-68
2023/06/24 07:04:21;;;;;;;2.20;1.30;;;;;;;17.23;72.08;99646.22;5106152;28;20051;-69
2023/06/24 07:06:48;;;;;;;2.20;1.40;;;;;;;17.17;71.81;99655.53;5106337;28;20333;-69
2023/06/24 07:09:15;;;;;;;2.03;1.40;;;;;;;17.13;71.62;99653.22;5106558;28;20048;-69
2023/06/24 07:11:43;;;;;;;2.63;1.52;;;;;;;17.09;71.56;99659.78;5105824;28;20369;-69
2023/06/24 07:14:10;;;;;;;2.20;1.42;;;;;;;17.07;71.47;99665.25;5106304;28;20173;-69
2023/06/24 07:16:37;;;;;;;2.00;1.38;;;;;;;17.08;71.07;99661.59;5106545;28;20032;-69
2023/06/24 07:19:04;;;;;;;2.10;1.40;;;;;;;17.00;71.52;99664.88;5106320;28;20044;-69
2023/06/24 07:21:31;;;;;;;2.40;1.60;;;;;;;17.13;71.34;99666.59;5106488;28;20039;-69
2023/06/24 07:23:58;;;;;;;2.30;1.40;;;;;;;17.07;71.64;99675.13;5088402;28;20035;-69
2023/06/24 07:26:24;;;;;;;2.17;1.45;;;;;;;17.27;70.88;99669.97;5105720;28;20048;-69
2023/06/24 07:28:53;;;;;;;2.85;1.70;;;;;;;17.39;71.20;99680.69;5106047;28;20043;-69
2023/06/24 07:31:19;;;;;;;2.80;1.90;;;;;;;17.50;70.85;99678.03;5106045;28;20085;-69
2023/06/24 07:33:46;;;;;;;3.10;2.25;;;;;;;17.18;70.65;99689.38;5105960;28;20292;-69
2023/06/24 07:36:13;;;;;;;2.95;1.88;;;;;;;17.26;70.53;99687.00;5105640;28;20032;-69
2023/06/24 07:38:40;;;;;;;2.40;1.60;;;;;;;17.34;70.39;99690.91;5105844;28;20405;-70
2023/06/24 07:41:07;;;;;;;2.92;1.92;;;;;;;17.27;70.11;99687.84;5105522;28;20101;-70
2023/06/24 07:43:33;;;;;;;2.78;1.70;;;;;;;17.28;70.38;99689.56;5105782;28;20047;-70
2023/06/24 07:46:02;;;;;;;3.17;2.25;;;;;;;17.38;70.13;99700.41;5105483;28;20047;-69
2023/06/24 07:48:28;;;;;;;3.47;2.10;;;;;;;17.38;70.23;99697.72;5105765;28;20036;-70
2023/06/24 07:50:55;;;;;;;2.80;1.90;;;;;;;17.33;70.25;99690.06;5106011;28;20046;-70
2023/06/24 07:53:22;;;;;;;2.55;1.75;;;;;;;17.22;69.62;99696.25;5105728;28;20292;-69
2023/06/24 07:55:48;;;;;;;2.60;2.05;;;;;;;17.15;70.58;99696.81;5105228;28;20107;-69
2023/06/24 07:58:15;;;;;;;3.40;2.42;;;;;;;17.26;70.04;99697.72;5105381;28;20040;-69
2023/06/24 08:00:42;;;;;;;3.00;2.30;;;;;;;17.17;69.67;99703.75;5105731;28;20044;-69
2023/06/24 08:03:10;;;;;;;4.18;2.50;;;;;;;17.27;69.52;99709.28;5105725;28;20316;-69
2023/06/24 08:05:38;;;;;;;3.28;2.60;;;;;;;17.19;69.76;99712.50;5105153;28;20040;-69
2023/06/24 08:08:05;;;;;;;3.42;2.50;;;;;;;17.08;70.15;99711.63;5088124;28;20040;-69
2023/06/24 08:10:32;;;;;;;3.50;2.30;;;;;;;17.09;69.75;99705.31;5105345;28;20047;-69
2023/06/24 08:12:59;;;;;;;3.75;2.60;;;;;;;17.13;69.62;99721.03;5105493;28;20044;-69
2023/06/24 08:15:25;;;;;;;3.63;2.80;;;;;;;16.92;70.15;99695.88;5105332;28;20304;-68
2023/06/24 08:17:53;;;;;;;4.65;2.50;;;;;;;16.89;70.01;99726.41;5105798;28;20107;-69
2023/06/24 08:20:21;;;;;;;2.90;2.03;;;;;;;17.07;70.02;99728.66;5105361;28;20074;-69
2023/06/24 08:22:47;;;;;;;3.10;2.20;;;;;;;16.94;70.85;99724.25;5105201;28;20215;-69
2023/06/24 08:25:14;;;;;;;3.50;2.53;;;;;;;16.84;71.49;99731.25;5109593;28;20048;-68
2023/06/24 08:27:42;;;;;;;3.83;2.67;;;;;;;16.97;70.48;99731.19;5109628;28;20040;-68
2023/06/24 08:30:11;;;;;;;4.82;3.50;;;;;;;17.05;70.68;99728.78;5109299;28;20052;-69
2023/06/24 08:32:37;;;;;;;3.30;2.50;;;;;;;17.05;70.81;99726.09;5109006;28;20327;-69
2023/06/24 08:35:05;;;;;;;3.50;2.50;;;;;;;16.32;70.90;99646.81;5109273;28;20044;-69
2023/06/24 08:37:35;;;;;;;4.10;3.30;;;;;;;16.81;71.08;99712.75;5108979;28;20032;-69
2023/06/24 08:40:01;;;;;;;3.45;2.88;;;;;;;16.96;71.18;99730.34;5109331;28;20051;-69
2023/06/24 08:42:29;;;;;;;3.20;2.40;;;;;;;17.00;70.87;99737.16;5108505;28;20082;-69
2023/06/24 08:44:56;;;;;;;4.00;2.90;;;;;;;17.11;70.99;99732.81;5090972;28;20086;-69
2023/06/24 08:47:25;;;;;;;4.80;3.20;;;;;;;17.11;70.81;99736.34;5108627;28;20040;-69
2023/06/24 08:49:55;;;;;;;3.90;2.85;;;;;;;16.79;71.33;99722.72;5109214;28;20040;-69
2023/06/24 08:52:26;;;;;;;4.07;2.78;;;;;;;17.10;71.57;99733.78;5109167;28;20052;-69
2023/06/24 08:54:56;;;;;;;4.85;2.70;;;;;;;17.02;71.39;99726.34;5109111;28;20055;-68
2023/06/24 08:57:24;;;;;;;3.80;3.20;;;;;;;17.03;71.14;99733.41;5108409;28;20089;-69
2023/06/24 08:59:51;;;;;;;4.95;2.97;;;;;;;17.13;71.51;99733.56;5108730;28;20046;-69
2023/06/24 09:02:18;;;;;;;4.32;3.38;;;;;;;17.14;70.20;99725.41;5108434;28;20044;-68
2023/06/24 09:04:45;;;;;;;4.45;2.72;;;;;;;17.13;70.46;99742.44;5108742;28;20043;-69
2023/06/24 09:07:12;;;;;;;4.13;3.22;;;;;;;16.93;70.78;99724.38;5108605;28;20043;-69
2023/06/24 09:09:44;;;;;;;3.80;3.13;;;;;;;17.21;70.56;99752.59;5108546;28;20082;-69
2023/06/24 09:12:15;;;;;;;3.58;2.60;;;;;;;17.24;70.58;99752.38;5108230;28;20043;-68
2023/06/24 09:14:42;;;;;;;3.60;2.70;;;;;;;17.25;70.66;99756.75;5108815;28;20047;-69
2023/06/24 09:17:10;;;;;;;3.50;2.75;;;;;;;17.37;70.35;99754.97;5090407;28;20039;-69
2023/06/24 09:19:37;;;;;;;3.28;2.50;;;;;;;17.17;71.28;99749.28;5108207;28;20044;-69
2023/06/24 09:22:06;;;;;;;3.25;2.50;;;;;;;17.29;70.70;99753.72;5108036;28;20040;-69
2023/06/24 09:24:33;;;;;;;3.40;2.47;;;;;;;17.33;70.71;99764.22;5108284;28;20062;-69
2023/06/24 09:27:00;;;;;;;3.42;2.58;;;;;;;17.07;70.82;99700.06;5107909;28;20044;-69
2023/06/24 09:29:29;;;;;;;4.00;2.20;;;;;;;17.48;70.92;99750.50;5108270;28;20039;-69
2023/06/24 09:31:58;;;;;;;4.95;2.55;;;;;;;17.45;70.69;99750.72;5108192;28;20046;-69
2023/06/24 09:34:25;;;;;;;3.10;2.33;;;;;;;17.51;70.58;99757.44;5107586;28;20304;-69
2023/06/24 09:36:53;;;;;;;5.00;2.30;;;;;;;17.50;71.16;99753.91;5108363;28;20059;-69
2023/06/24 09:39:21;;;;;;;5.70;2.55;;;;;;;17.50;70.61;99748.53;5108120;28;20040;-69
2023/06/24 09:41:50;;;;;;;3.10;2.50;;;;;;;17.59;70.87;99763.06;5107535;28;20059;-69
2023/06/24 09:44:18;;;;;;;4.65;2.40;;;;;;;17.30;70.71;99711.72;5107567;28;20058;-69
2023/06/24 09:46:47;;;;;;;3.30;2.33;;;;;;;17.67;70.19;99763.34;5108031;28;20178;-69
2023/06/24 09:49:15;;;;;;;3.00;2.40;;;;;;;17.48;70.48;99729.06;5107804;28;20040;-69
2023/06/24 09:51:45;;;;;;;3.22;2.10;;;;;;;17.60;70.61;99749.53;5090213;28;20062;-69
2023/06/24 09:54:13;;;;;;;3.10;2.20;;;;;;;17.65;70.24;99754.56;5107454;28;20097;-69
2023/06/24 09:56:43;;;;;;;3.35;2.50;;;;;;;17.69;69.92;99755.19;5107291;28;20039;-69
2023/06/24 09:59:11;;;;;;;2.70;2.22;;;;;;;17.66;70.23;99744.69;5107297;28;20051;-69
2023/06/24 10:01:40;;;;;;;3.40;2.30;;;;;;;17.08;70.24;99658.94;5107553;28;20322;-69
2023/06/24 10:04:10;;;;;;;3.35;2.45;;;;;;;17.61;70.37;99756.63;5107698;28;20218;-69
2023/06/24 10:06:37;;;;;;;4.60;2.40;;;;;;;17.69;69.81;99748.00;5089343;28;20259;-69
2023/06/24 10:09:03;;;;;;;3.13;2.63;;;;;;;17.63;70.26;99752.00;5107445;28;20048;-69
2023/06/24 10:11:31;;;;;;;3.53;2.85;;;;;;;17.69;70.14;99755.19;5107366;28;20044;-69
2023/06/24 10:13:58;;;;;;;3.90;2.85;;;;;;;17.74;69.23;99748.50;5107583;28;20048;-69
2023/06/24 10:16:25;;;;;;;4.60;2.75;;;;;;;17.53;69.78;99753.66;5107526;28;20032;-69
2023/06/24 10:18:52;;;;;;;5.25;3.33;;;;;;;17.69;69.42;99747.13;5106958;28;20048;-68
2023/06/24 10:21:20;;;;;;;4.28;3.17;;;;;;;17.71;69.38;99735.31;5107309;28;20051;-69
2023/06/24 10:23:54;;;;;;;3.85;3.03;;;;;;;17.66;69.82;99750.91;5106803;28;20093;-69
2023/06/24 10:26:23;;;;;;;;;;;;;;;17.48;69.97;99749.63;5107793;28;20059;-69
2023/06/24 10:29:14;;;;;;;4.30;3.63;;;;;;;17.43;70.42;99747.31;5107170;28;19916;-69
2023/06/24 10:31:54;;;;;;;4.90;4.40;;;;;;;17.41;70.80;99749.25;5106582;28;20319;-69
2023/06/24 10:34:28;;;;;;;4.00;3.42;;;;;;;17.41;71.13;99756.44;5106695;28;20123;-70
2023/06/24 10:36:57;;;;;;;3.92;3.38;;;;;;;17.39;70.91;99759.22;5106462;28;20044;-69
2023/06/24 10:39:37;;;;;;;5.35;3.70;;;;;;;17.31;71.14;99754.47;5107096;28;20118;-69
2023/06/24 10:42:52;;;;;;;4.18;3.47;;;;;;;17.44;70.77;99751.69;5106461;28;20316;-68
2023/06/24 10:45:21;;;;;;;4.35;3.95;;;;;;;17.45;70.76;99757.91;5025415;28;20302;-68
2023/06/24 10:47:49;;;;;;;3.78;3.25;;;;;;;17.35;71.46;99744.38;5090228;28;20068;-68
2023/06/24 10:50:20;;;;;;;5.53;4.50;;;;;;;17.10;72.15;99720.41;5106171;28;20084;-69
2023/06/24 10:52:53;;;;;;;4.35;3.83;;;;;;;17.23;72.12;99762.22;5106805;28;20040;-68
2023/06/24 10:55:20;;;;;;;4.68;4.18;;;;;;;16.68;72.21;99661.13;5106457;28;20035;-69
2023/06/24 10:57:47;;;;;;;4.75;4.00;;;;;;;17.29;72.13;99737.66;5088476;28;20042;-68
2023/06/24 11:00:15;;;;;;;5.00;3.72;;;;;;;17.28;72.00;99740.47;5106218;28;20040;-68
2023/06/24 11:02:42;;;;;;;4.45;3.50;;;;;;;17.40;71.76;99727.94;5106507;28;20048;-69
2023/06/24 11:05:09;;;;;;;5.95;4.22;;;;;;;17.27;71.90;99736.06;5106554;28;20243;-69
2023/06/24 11:07:38;;;;;;;5.40;3.40;;;;;;;17.37;71.37;99731.72;5105909;28;20040;-69
2023/06/24 11:10:08;;;;;;;4.88;4.38;;;;;;;17.33;71.60;99732.06;5106854;28;20231;-69
2023/06/24 11:12:36;;;;;;;5.18;4.28;;;;;;;17.27;70.92;99741.44;5106183;28;20058;-68
2023/06/24 11:15:04;;;;;;;5.97;5.10;;;;;;;17.14;70.98;99717.38;5105988;28;20097;-69
2023/06/24 11:17:31;;;;;;;6.03;5.15;;;;;;;17.22;71.56;99738.25;5105873;28;20048;-69
2023/06/24 11:19:59;;;;;;;6.35;5.75;;;;;;;17.20;71.27;99735.69;5105823;28;20047;-69
2023/06/24 11:22:27;;;;;;;5.47;4.90;;;;;;;16.88;71.20;99691.72;5106001;28;20048;-69
2023/06/24 11:24:54;;;;;;;6.72;5.63;;;;;;;17.09;71.41;99716.00;5105756;28;20042;-69
2023/06/24 11:27:27;;;;;;;6.57;5.95;;;;;;;17.12;71.76;99724.66;5106240;28;20106;-69
2023/06/24 11:29:54;;;;;;;5.70;4.90;;;;;;;16.95;72.04;99712.56;5105486;28;20292;-69
2023/06/24 11:32:21;;;;;;;6.25;5.65;;;;;;;17.18;71.43;99726.88;5106030;28;20272;-68
2023/06/24 11:34:48;;;;;;;6.95;5.15;;;;;;;16.57;71.60;99656.53;5106011;28;20036;-70
2023/06/24 11:37:16;;;;;;;6.13;5.53;;;;;;;16.95;72.07;99715.25;5106137;28;20062;-69
2023/06/24 11:39:44;;;;;;;5.80;5.20;;;;;;;17.05;71.70;99709.19;5106016;28;20043;-68